createdAt,value
2019-03-29T00:01:01.634Z,21.90
2019-03-29T00:03:30.303Z,24.43
2019-03-29T00:05:58.753Z,24.43
2019-03-29T00:08:27.197Z,24.43
2019-03-29T00:10:55.641Z,24.23
2019-03-29T00:13:24.073Z,24.27
2019-03-29T00:15:52.694Z,24.33
2019-03-29T00:18:21.124Z,25.67
2019-03-29T00:20:49.583Z,25.47
2019-03-29T00:23:18.015Z,26.43
2019-03-29T00:25:46.460Z,24.57
2019-03-29T00:28:14.906Z,24.63
2019-03-29T00:30:43.346Z,26.40
2019-03-29T00:33:11.850Z,25.77
2019-03-29T00:35:40.375Z,24.33
2019-03-29T00:38:08.817Z,26.53
2019-03-29T00:40:37.288Z,25.20
2019-03-29T00:43:05.721Z,24.80
2019-03-29T00:45:34.175Z,24.70
2019-03-29T00:48:02.620Z,26.03
2019-03-29T00:50:31.056Z,24.67
2019-03-29T00:53:00.438Z,25.07
2019-03-29T00:55:28.880Z,24.07
2019-03-29T00:57:57.325Z,24.13
2019-03-29T01:00:25.767Z,21.10
2019-03-29T01:02:54.232Z,20.90
2019-03-29T01:05:22.674Z,21.00
2019-03-29T01:07:51.139Z,20.67
2019-03-29T01:10:19.644Z,21.30
2019-03-29T01:12:48.103Z,22.07
2019-03-29T01:15:16.547Z,22.83
2019-03-29T01:17:45.768Z,22.53
2019-03-29T01:20:15.985Z,23.07
2019-03-29T01:22:44.664Z,23.33
2019-03-29T01:25:13.221Z,24.57
2019-03-29T01:27:41.680Z,22.13
2019-03-29T01:30:10.440Z,22.73
2019-03-29T01:32:38.911Z,22.40
2019-03-29T01:35:09.066Z,22.00
2019-03-29T01:37:37.736Z,22.43
2019-03-29T01:40:09.002Z,20.37
2019-03-29T01:42:37.579Z,20.67
2019-03-29T01:45:08.738Z,18.90
2019-03-29T01:47:37.183Z,19.03
2019-03-29T01:50:07.989Z,22.20
2019-03-29T01:52:36.621Z,20.50
2019-03-29T01:55:06.806Z,21.47
2019-03-29T01:57:35.415Z,18.77
2019-03-29T02:00:04.975Z,18.93
2019-03-29T02:02:33.440Z,19.90
2019-03-29T02:05:01.930Z,19.80
2019-03-29T02:07:30.606Z,19.03
2019-03-29T02:09:59.066Z,18.60
2019-03-29T02:12:27.512Z,19.80
2019-03-29T02:14:55.959Z,19.00
2019-03-29T02:17:24.423Z,17.87
2019-03-29T02:19:52.877Z,18.83
2019-03-29T02:22:21.314Z,18.10
2019-03-29T02:24:50.040Z,18.07
2019-03-29T02:27:18.702Z,17.10
2019-03-29T02:29:47.141Z,14.67
2019-03-29T02:32:15.599Z,16.27
2019-03-29T02:34:44.238Z,15.97
2019-03-29T02:37:12.786Z,18.40
2019-03-29T02:39:41.209Z,16.53
2019-03-29T02:42:09.664Z,17.80
2019-03-29T02:44:38.087Z,17.70
2019-03-29T02:47:06.555Z,17.57
2019-03-29T02:49:34.987Z,15.73
2019-03-29T02:52:03.674Z,18.70
2019-03-29T02:54:32.112Z,17.63
2019-03-29T02:57:00.988Z,17.37
2019-03-29T02:59:29.432Z,16.40
2019-03-29T03:01:57.881Z,17.67
2019-03-29T03:04:26.321Z,15.97
2019-03-29T03:06:54.870Z,15.20
2019-03-29T03:09:23.377Z,16.57
2019-03-29T03:11:51.917Z,16.87
2019-03-29T03:14:20.342Z,17.97
2019-03-29T03:16:48.813Z,17.83
2019-03-29T03:19:17.346Z,17.90
2019-03-29T03:21:45.799Z,18.83
2019-03-29T03:24:14.272Z,18.30
2019-03-29T03:26:42.717Z,17.33
2019-03-29T03:29:11.165Z,18.93
2019-03-29T03:31:39.599Z,18.93
2019-03-29T03:34:08.056Z,18.20
2019-03-29T03:36:36.500Z,18.23
2019-03-29T03:39:07.474Z,19.47
2019-03-29T03:41:36.053Z,18.57
2019-03-29T03:44:04.517Z,18.17
2019-03-29T03:46:32.969Z,18.97
2019-03-29T03:49:01.415Z,17.60
2019-03-29T03:51:30.860Z,18.33
2019-03-29T03:53:59.318Z,16.07
2019-03-29T03:56:29.229Z,15.30
2019-03-29T03:58:58.506Z,14.27
2019-03-29T04:01:26.954Z,14.90
2019-03-29T04:03:55.378Z,14.80
2019-03-29T04:06:23.852Z,13.67
2019-03-29T04:08:52.300Z,13.47
2019-03-29T04:11:20.814Z,13.33
2019-03-29T04:13:49.267Z,13.07
2019-03-29T04:16:17.809Z,11.87
2019-03-29T04:18:46.258Z,11.83
2019-03-29T04:21:14.858Z,12.97
2019-03-29T04:23:43.320Z,11.50
2019-03-29T04:26:11.756Z,11.20
2019-03-29T04:28:40.205Z,11.20
2019-03-29T04:31:08.668Z,10.70
2019-03-29T04:33:37.137Z,11.07
2019-03-29T04:36:05.866Z,10.37
2019-03-29T04:38:34.483Z,10.60
2019-03-29T04:41:03.104Z,10.13
2019-03-29T04:43:31.538Z,10.53
2019-03-29T04:46:00.905Z,9.87
2019-03-29T04:48:29.321Z,9.93
2019-03-29T04:50:57.779Z,8.93
2019-03-29T04:53:26.274Z,8.70
2019-03-29T04:55:54.803Z,8.73
2019-03-29T04:58:23.259Z,8.50
2019-03-29T05:00:51.712Z,8.47
2019-03-29T05:03:20.136Z,8.37
2019-03-29T05:05:48.596Z,8.57
2019-03-29T05:08:17.031Z,7.90
2019-03-29T05:10:45.493Z,7.23
2019-03-29T05:13:13.916Z,8.03
2019-03-29T05:15:42.388Z,7.43
2019-03-29T05:18:10.829Z,9.50
2019-03-29T05:20:39.344Z,10.90
2019-03-29T05:23:07.783Z,7.80
2019-03-29T05:25:36.212Z,7.77
2019-03-29T05:28:04.929Z,7.23
2019-03-29T05:30:33.414Z,6.80
2019-03-29T05:33:01.933Z,6.67
2019-03-29T05:35:31.023Z,8.10
2019-03-29T05:37:59.474Z,7.07
2019-03-29T05:40:34.809Z,6.60
2019-03-29T05:42:58.106Z,6.77
2019-03-29T05:45:26.594Z,7.40
2019-03-29T05:47:55.059Z,7.80
2019-03-29T05:50:23.485Z,7.30
2019-03-29T05:52:51.933Z,8.50
2019-03-29T05:55:32.047Z,6.70
2019-03-29T05:57:50.548Z,6.30
2019-03-29T06:00:19.514Z,6.83
2019-03-29T06:02:47.966Z,7.37
2019-03-29T06:05:16.399Z,6.73
2019-03-29T06:07:44.868Z,7.17
2019-03-29T06:10:13.452Z,6.30
2019-03-29T06:12:41.907Z,7.07
2019-03-29T06:15:10.368Z,7.53
2019-03-29T06:17:48.622Z,5.80
2019-03-29T06:20:09.514Z,6.90
2019-03-29T06:22:37.957Z,5.10
2019-03-29T06:25:07.457Z,6.33
2019-03-29T06:27:35.965Z,6.57
2019-03-29T06:30:06.464Z,7.00
2019-03-29T06:32:34.965Z,5.83
2019-03-29T06:35:04.592Z,6.60
2019-03-29T06:37:34.954Z,7.20
2019-03-29T06:40:04.279Z,6.23
2019-03-29T06:42:32.739Z,6.43
2019-03-29T06:45:01.211Z,5.57
2019-03-29T06:47:29.703Z,5.97
2019-03-29T06:49:58.155Z,6.10
2019-03-29T06:52:26.621Z,5.60
2019-03-29T06:54:55.169Z,6.53
2019-03-29T06:57:23.695Z,5.87
2019-03-29T06:59:52.138Z,5.57
2019-03-29T07:02:20.578Z,6.73
2019-03-29T07:04:49.015Z,6.17
2019-03-29T07:07:17.486Z,5.63
2019-03-29T07:09:45.920Z,5.60
2019-03-29T07:12:14.348Z,6.30
2019-03-29T07:14:42.826Z,5.33
2019-03-29T07:17:11.263Z,5.57
2019-03-29T07:19:40.532Z,5.13
2019-03-29T07:22:08.975Z,5.00
2019-03-29T07:24:37.409Z,4.93
2019-03-29T07:27:05.857Z,4.57
2019-03-29T07:29:34.321Z,4.03
2019-03-29T07:32:02.759Z,4.90
2019-03-29T07:34:31.305Z,4.60
2019-03-29T07:36:59.735Z,4.23
2019-03-29T07:39:28.211Z,4.33
2019-03-29T07:41:56.635Z,4.33
2019-03-29T07:44:25.080Z,3.97
2019-03-29T07:46:53.528Z,4.83
2019-03-29T07:49:21.988Z,4.30
2019-03-29T07:51:50.427Z,4.93
2019-03-29T07:54:18.905Z,5.17
2019-03-29T07:56:47.326Z,4.70
2019-03-29T07:59:15.798Z,5.43
2019-03-29T08:01:44.328Z,5.50
2019-03-29T08:04:12.846Z,5.47
2019-03-29T08:06:41.273Z,6.07
2019-03-29T08:09:21.628Z,5.20
2019-03-29T08:11:46.044Z,7.37
2019-03-29T08:14:10.058Z,6.60
2019-03-29T08:16:38.496Z,7.87
2019-03-29T08:19:06.941Z,8.07
2019-03-29T08:21:35.382Z,7.67
2019-03-29T08:24:03.840Z,8.17
2019-03-29T08:26:32.295Z,7.53
2019-03-29T08:29:01.460Z,7.47
2019-03-29T08:31:29.883Z,8.63
2019-03-29T08:33:58.351Z,8.37
2019-03-29T08:36:26.802Z,8.20
2019-03-29T08:38:55.318Z,9.00
2019-03-29T08:41:23.794Z,7.90
2019-03-29T08:43:52.249Z,8.17
2019-03-29T08:46:20.820Z,8.93
2019-03-29T08:48:49.280Z,7.27
2019-03-29T08:51:17.723Z,7.90
2019-03-29T08:53:46.198Z,8.93
2019-03-29T08:56:14.692Z,8.77
2019-03-29T08:58:46.300Z,9.07
2019-03-29T09:01:13.312Z,8.70
2019-03-29T09:03:41.995Z,9.03
2019-03-29T09:06:10.446Z,8.23
2019-03-29T09:08:38.977Z,8.37
2019-03-29T09:11:07.877Z,8.60
2019-03-29T09:13:36.327Z,8.37
2019-03-29T09:16:04.787Z,8.57
2019-03-29T09:18:33.216Z,7.63
2019-03-29T09:21:01.670Z,8.37
2019-03-29T09:23:30.445Z,8.67
2019-03-29T09:25:59.031Z,7.73
2019-03-29T09:28:27.484Z,8.07
2019-03-29T09:30:56.749Z,7.63
2019-03-29T09:33:25.375Z,8.33
2019-03-29T09:35:53.845Z,10.33
2019-03-29T09:38:22.289Z,9.83
2019-03-29T09:40:58.228Z,10.70
2019-03-29T09:43:21.236Z,9.60
2019-03-29T09:45:49.737Z,9.47
2019-03-29T09:48:18.211Z,8.23
2019-03-29T09:50:50.420Z,8.77
2019-03-29T09:53:16.823Z,8.67
2019-03-29T09:55:45.846Z,8.13
2019-03-29T09:58:16.617Z,9.27
2019-03-29T10:00:44.667Z,8.53
2019-03-29T10:03:13.112Z,8.57
2019-03-29T10:05:41.541Z,8.83
2019-03-29T10:08:10.046Z,8.13
2019-03-29T10:10:38.512Z,7.57
2019-03-29T10:13:07.041Z,8.20
2019-03-29T10:15:35.466Z,7.77
2019-03-29T10:18:03.897Z,7.67
2019-03-29T10:20:32.346Z,7.70
2019-03-29T10:23:01.716Z,7.53
2019-03-29T10:25:30.161Z,7.00
2019-03-29T10:27:58.612Z,7.20
2019-03-29T10:30:46.593Z,7.43
2019-03-29T10:33:14.372Z,7.53
2019-03-29T10:35:51.591Z,6.60
2019-03-29T10:38:12.975Z,6.73
2019-03-29T10:40:41.446Z,6.73
2019-03-29T10:43:09.868Z,6.70
2019-03-29T10:45:40.618Z,6.60
2019-03-29T10:48:08.465Z,6.47
2019-03-29T10:50:36.929Z,6.40
2019-03-29T10:53:05.399Z,6.47
2019-03-29T10:55:33.865Z,7.67
2019-03-29T10:58:02.293Z,7.17
2019-03-29T11:00:34.749Z,6.80
2019-03-29T11:03:03.214Z,6.10
2019-03-29T11:05:31.804Z,6.67
2019-03-29T11:08:00.242Z,7.00
2019-03-29T11:10:41.118Z,5.73
2019-03-29T11:13:13.142Z,5.37
2019-03-29T11:15:39.704Z,5.83
2019-03-29T11:18:08.167Z,6.37
2019-03-29T11:20:36.662Z,6.33
2019-03-29T11:23:05.128Z,6.17
2019-03-29T11:25:33.572Z,5.13
2019-03-29T11:28:02.028Z,5.50
2019-03-29T11:30:41.504Z,4.83
2019-03-29T11:33:00.609Z,4.43
2019-03-29T11:35:29.069Z,4.43
2019-03-29T11:37:57.526Z,4.57
2019-03-29T11:40:25.947Z,4.53
2019-03-29T11:42:54.410Z,4.83
2019-03-29T11:45:22.847Z,4.03
2019-03-29T11:47:51.295Z,4.43
2019-03-29T11:50:19.742Z,5.20
2019-03-29T11:52:48.184Z,6.17
2019-03-29T11:55:16.634Z,5.50
2019-03-29T11:57:45.144Z,5.20
2019-03-29T12:00:14.151Z,5.07
2019-03-29T12:02:42.602Z,5.13
2019-03-29T12:05:11.093Z,4.73
2019-03-29T12:07:39.551Z,5.10
2019-03-29T12:10:08.888Z,5.20
2019-03-29T12:12:37.424Z,5.13
2019-03-29T12:15:07.688Z,5.50
2019-03-29T12:17:36.158Z,5.43
2019-03-29T12:20:06.630Z,5.00
2019-03-29T12:22:35.071Z,4.87
2019-03-29T12:25:04.412Z,5.57
2019-03-29T12:27:32.938Z,4.97
2019-03-29T12:30:02.012Z,4.60
2019-03-29T12:32:30.531Z,4.27
2019-03-29T12:34:58.979Z,4.33
2019-03-29T12:37:27.476Z,4.70
2019-03-29T12:39:55.925Z,4.33
2019-03-29T12:42:24.374Z,3.73
2019-03-29T12:44:52.856Z,3.67
2019-03-29T12:47:21.309Z,3.60
2019-03-29T12:49:49.731Z,2.60
2019-03-29T12:52:18.175Z,2.57
2019-03-29T12:54:46.621Z,3.07
2019-03-29T12:57:15.042Z,2.93
2019-03-29T12:59:43.496Z,2.80
2019-03-29T13:02:12.085Z,3.20
2019-03-29T13:04:40.572Z,3.63
2019-03-29T13:07:08.989Z,3.50
2019-03-29T13:09:39.792Z,3.00
2019-03-29T13:12:07.600Z,3.27
2019-03-29T13:14:36.040Z,4.23
2019-03-29T13:17:04.470Z,3.60
2019-03-29T13:19:32.932Z,3.23
2019-03-29T13:22:02.115Z,3.37
2019-03-29T13:24:30.582Z,3.13
2019-03-29T13:26:59.017Z,5.30
2019-03-29T13:29:27.477Z,3.30
2019-03-29T13:31:55.915Z,2.83
2019-03-29T13:34:24.360Z,5.47
2019-03-29T13:36:52.799Z,2.63
2019-03-29T13:39:21.253Z,2.90
2019-03-29T13:41:49.692Z,3.23
2019-03-29T13:44:24.007Z,3.27
2019-03-29T13:46:48.294Z,2.93
2019-03-29T13:49:16.812Z,3.23
2019-03-29T13:51:45.255Z,3.37
2019-03-29T13:54:13.702Z,3.70
2019-03-29T13:56:42.132Z,3.80
2019-03-29T13:59:10.583Z,3.60
2019-03-29T14:01:39.102Z,3.97
2019-03-29T14:04:07.544Z,4.20
2019-03-29T14:06:36.053Z,4.20
2019-03-29T14:09:06.828Z,4.43
2019-03-29T14:11:35.289Z,4.43
2019-03-29T14:14:03.801Z,3.97
2019-03-29T14:16:32.507Z,4.30
2019-03-29T14:19:00.961Z,4.60
2019-03-29T14:21:29.512Z,6.07
2019-03-29T14:23:57.940Z,3.20
2019-03-29T14:26:26.384Z,3.13
2019-03-29T14:28:54.841Z,3.60
2019-03-29T14:31:23.291Z,3.03
2019-03-29T14:33:51.719Z,3.43
2019-03-29T14:36:20.170Z,3.70
2019-03-29T14:38:48.705Z,3.13
2019-03-29T14:41:17.148Z,3.40
2019-03-29T14:43:45.616Z,3.17
2019-03-29T14:46:14.069Z,3.67
2019-03-29T14:48:42.592Z,8.17
2019-03-29T14:51:11.039Z,3.00
2019-03-29T14:53:39.511Z,2.97
2019-03-29T14:56:07.964Z,4.23
2019-03-29T14:58:36.478Z,3.00
2019-03-29T15:01:04.911Z,2.90
2019-03-29T15:03:33.379Z,3.40
2019-03-29T15:06:02.405Z,3.53
2019-03-29T15:08:30.844Z,3.57
2019-03-29T15:10:59.297Z,3.33
2019-03-29T15:13:27.772Z,3.30
2019-03-29T15:15:56.260Z,3.30
2019-03-29T15:18:24.789Z,3.67
2019-03-29T15:20:54.291Z,3.73
2019-03-29T15:23:22.895Z,3.40
2019-03-29T15:25:51.335Z,3.23
2019-03-29T15:28:19.793Z,3.50
2019-03-29T15:30:48.230Z,3.43
2019-03-29T15:33:16.671Z,4.27
2019-03-29T15:35:45.096Z,3.80
2019-03-29T15:38:13.583Z,3.77
2019-03-29T15:40:42.077Z,6.90
2019-03-29T15:43:10.531Z,4.43
2019-03-29T15:45:38.957Z,4.30
2019-03-29T15:48:07.437Z,4.10
2019-03-29T15:50:35.926Z,3.03
2019-03-29T15:53:04.535Z,3.27
2019-03-29T15:55:32.956Z,3.03
2019-03-29T15:58:02.317Z,3.80
2019-03-29T16:00:30.771Z,3.43
2019-03-29T16:02:59.227Z,3.27
2019-03-29T16:05:27.651Z,3.30
2019-03-29T16:07:56.101Z,3.40
2019-03-29T16:10:24.541Z,3.70
2019-03-29T16:12:53.065Z,3.17
2019-03-29T16:15:33.932Z,3.57
2019-03-29T16:17:51.655Z,3.30
2019-03-29T16:20:20.120Z,3.90
2019-03-29T16:22:48.566Z,3.20
2019-03-29T16:25:17.015Z,3.00
2019-03-29T16:27:45.458Z,3.10
2019-03-29T16:30:14.360Z,3.77
2019-03-29T16:32:42.824Z,5.37
2019-03-29T16:35:11.341Z,5.60
2019-03-29T16:37:39.779Z,6.97
2019-03-29T16:40:08.672Z,3.00
2019-03-29T16:42:37.106Z,3.40
2019-03-29T16:45:07.472Z,2.90
2019-03-29T16:47:35.905Z,3.47
2019-03-29T16:50:05.984Z,3.10
2019-03-29T16:52:34.422Z,2.70
2019-03-29T16:55:13.274Z,3.67
2019-03-29T16:57:33.235Z,3.00
2019-03-29T17:00:03.073Z,3.00
2019-03-29T17:02:32.431Z,2.80
2019-03-29T17:05:00.945Z,2.67
2019-03-29T17:07:29.386Z,2.77
2019-03-29T17:09:57.843Z,2.77
2019-03-29T17:12:26.284Z,2.90
2019-03-29T17:14:54.732Z,2.57
2019-03-29T17:17:23.230Z,8.40
2019-03-29T17:19:51.689Z,8.93
2019-03-29T17:22:20.143Z,2.97
2019-03-29T17:24:56.939Z,3.00
2019-03-29T17:27:18.757Z,2.83
2019-03-29T17:29:47.220Z,3.10
2019-03-29T17:32:15.654Z,3.53
2019-03-29T17:34:44.100Z,3.60
2019-03-29T17:37:12.547Z,3.50
2019-03-29T17:39:41.011Z,3.60
2019-03-29T17:42:09.459Z,3.37
2019-03-29T17:44:37.890Z,3.80
2019-03-29T17:47:06.381Z,3.90
2019-03-29T17:49:34.933Z,3.60
2019-03-29T17:52:03.376Z,3.33
2019-03-29T17:54:32.709Z,3.53
2019-03-29T17:57:01.163Z,3.60
2019-03-29T17:59:29.579Z,3.50
2019-03-29T18:02:08.823Z,3.40
2019-03-29T18:04:28.161Z,3.70
2019-03-29T18:06:56.608Z,4.20
2019-03-29T18:09:25.039Z,3.70
2019-03-29T18:11:53.477Z,3.30
2019-03-29T18:14:21.918Z,3.50
2019-03-29T18:16:50.629Z,3.80
2019-03-29T18:19:19.052Z,3.23
2019-03-29T18:21:47.502Z,9.97
2019-03-29T18:24:21.765Z,6.40
2019-03-29T18:26:50.234Z,5.20
2019-03-29T18:29:18.717Z,4.27
2019-03-29T18:31:47.172Z,3.97
2019-03-29T18:34:15.675Z,3.77
2019-03-29T18:36:45.934Z,4.10
2019-03-29T18:39:14.363Z,6.00
2019-03-29T18:41:42.805Z,5.60
2019-03-29T18:44:11.249Z,5.03
2019-03-29T18:46:44.936Z,5.93
2019-03-29T18:49:09.841Z,5.57
2019-03-29T18:51:38.256Z,6.97
2019-03-29T18:54:06.705Z,7.40
2019-03-29T18:56:35.134Z,7.43
2019-03-29T18:59:03.586Z,7.90
2019-03-29T19:01:32.967Z,7.90
2019-03-29T19:04:01.431Z,8.10
2019-03-29T19:06:29.858Z,7.60
2019-03-29T19:08:58.311Z,8.00
2019-03-29T19:11:26.854Z,8.03
2019-03-29T19:13:55.318Z,7.17
2019-03-29T19:16:23.747Z,7.20
2019-03-29T19:18:52.193Z,8.27
2019-03-29T19:21:20.636Z,7.83
2019-03-29T19:23:49.088Z,6.50
2019-03-29T19:26:17.504Z,7.67
2019-03-29T19:28:45.956Z,8.60
2019-03-29T19:31:14.389Z,7.97
2019-03-29T19:33:42.841Z,8.17
2019-03-29T19:36:11.261Z,7.47
2019-03-29T19:38:39.729Z,7.27
2019-03-29T19:41:08.166Z,7.67
2019-03-29T19:43:36.624Z,7.67
2019-03-29T19:46:05.129Z,6.73
2019-03-29T19:48:33.583Z,6.80
2019-03-29T19:51:02.939Z,7.17
2019-03-29T19:53:34.248Z,7.07
2019-03-29T19:56:01.560Z,6.83
2019-03-29T19:58:30.097Z,5.50
2019-03-29T20:00:58.558Z,4.83
2019-03-29T20:03:27.066Z,4.80
2019-03-29T20:05:55.476Z,5.77
2019-03-29T20:08:24.006Z,5.13
2019-03-29T20:10:52.434Z,5.60
2019-03-29T20:13:20.881Z,6.97
2019-03-29T20:15:49.335Z,7.17
2019-03-29T20:18:17.882Z,6.20
2019-03-29T20:20:46.422Z,6.97
2019-03-29T20:23:14.891Z,6.83
2019-03-29T20:25:43.308Z,6.83
2019-03-29T20:28:11.749Z,6.33
2019-03-29T20:30:40.177Z,7.10
2019-03-29T20:33:08.625Z,7.20
2019-03-29T20:35:37.097Z,6.67
2019-03-29T20:38:05.598Z,6.73
2019-03-29T20:40:34.054Z,7.10
2019-03-29T20:43:03.113Z,7.67
2019-03-29T20:45:31.565Z,8.63
2019-03-29T20:48:00.004Z,10.00
2019-03-29T20:50:28.452Z,10.33
2019-03-29T20:52:56.883Z,12.50
2019-03-29T20:55:25.355Z,11.43
2019-03-29T20:57:53.786Z,12.23
2019-03-29T21:00:23.424Z,14.50
2019-03-29T21:02:51.867Z,12.77
2019-03-29T21:05:20.315Z,14.53
2019-03-29T21:07:48.740Z,14.30
2019-03-29T21:10:17.400Z,14.67
2019-03-29T21:12:45.881Z,15.23
2019-03-29T21:15:15.987Z,14.73
2019-03-29T21:17:55.930Z,15.13
2019-03-29T21:20:14.672Z,16.27
2019-03-29T21:22:43.104Z,16.83
2019-03-29T21:25:11.554Z,14.53
2019-03-29T21:27:39.999Z,14.30
2019-03-29T21:30:10.480Z,14.60
2019-03-29T21:32:38.906Z,15.53
2019-03-29T21:35:07.909Z,14.47
2019-03-29T21:37:36.809Z,15.13
2019-03-29T21:40:07.085Z,14.37
2019-03-29T21:42:35.694Z,12.80
2019-03-29T21:45:05.383Z,11.17
2019-03-29T21:47:33.827Z,11.47
2019-03-29T21:50:04.547Z,11.30
2019-03-29T21:52:33.284Z,11.37
2019-03-29T21:55:01.709Z,10.77
2019-03-29T21:57:30.150Z,10.80
2019-03-29T21:59:58.588Z,9.87
2019-03-29T22:02:27.033Z,10.40
2019-03-29T22:04:55.463Z,9.77
2019-03-29T22:07:23.911Z,10.00
2019-03-29T22:09:52.353Z,9.20
2019-03-29T22:12:20.792Z,10.10
2019-03-29T22:14:49.222Z,10.83
2019-03-29T22:17:17.759Z,11.30
2019-03-29T22:19:46.195Z,11.27
2019-03-29T22:22:14.673Z,10.53
2019-03-29T22:24:43.096Z,10.77
2019-03-29T22:27:11.528Z,11.23
2019-03-29T22:29:39.992Z,12.77
2019-03-29T22:32:08.431Z,12.30
2019-03-29T22:34:36.896Z,11.60
2019-03-29T22:37:05.346Z,12.07
2019-03-29T22:39:33.791Z,12.13
2019-03-29T22:42:02.240Z,11.20
2019-03-29T22:44:30.703Z,12.87
2019-03-29T22:46:59.132Z,14.97
2019-03-29T22:49:27.589Z,16.47
2019-03-29T22:51:56.022Z,14.90
2019-03-29T22:54:24.474Z,15.40
2019-03-29T22:56:52.919Z,13.60
2019-03-29T22:59:21.379Z,13.53
2019-03-29T23:01:49.804Z,13.50
2019-03-29T23:04:18.268Z,13.53
2019-03-29T23:06:46.714Z,13.10
2019-03-29T23:09:15.161Z,13.27
2019-03-29T23:11:43.596Z,12.43
2019-03-29T23:14:12.041Z,12.33
2019-03-29T23:16:40.483Z,12.97
2019-03-29T23:19:08.947Z,15.53
2019-03-29T23:21:37.399Z,13.97
2019-03-29T23:24:05.921Z,14.37
2019-03-29T23:26:34.418Z,13.97
2019-03-29T23:29:03.488Z,13.37
2019-03-29T23:31:31.932Z,13.87
2019-03-29T23:34:00.400Z,13.43
2019-03-29T23:36:28.899Z,14.00
2019-03-29T23:38:59.741Z,12.87
2019-03-29T23:41:28.182Z,13.70
2019-03-29T23:43:56.629Z,12.90
2019-03-29T23:46:25.076Z,12.53
2019-03-29T23:48:53.500Z,13.37
2019-03-29T23:51:21.959Z,14.30
2019-03-29T23:53:50.400Z,13.43
2019-03-29T23:56:18.838Z,13.20
2019-03-29T23:58:47.336Z,11.90
